createdAt,value
2018-07-05T00:02:01.932Z,50.35
2018-07-05T00:04:41.717Z,50.56
2018-07-05T00:07:21.276Z,49.99
2018-07-05T00:10:01.028Z,50.00
2018-07-05T00:12:40.737Z,50.23
2018-07-05T00:15:20.663Z,50.47
2018-07-05T00:18:00.304Z,51.58
2018-07-05T00:20:40.157Z,51.90
2018-07-05T00:23:20.060Z,51.08
2018-07-05T00:25:59.754Z,50.73
2018-07-05T00:28:39.628Z,51.63
2018-07-05T00:31:19.688Z,51.99
2018-07-05T00:33:59.535Z,51.30
2018-07-05T00:36:39.152Z,51.18
2018-07-05T00:39:18.852Z,51.83
2018-07-05T00:41:58.609Z,52.11
2018-07-05T00:47:29.144Z,51.60
2018-07-05T00:50:09.276Z,51.95
2018-07-05T00:52:48.961Z,51.82
2018-07-05T00:55:28.750Z,51.84
2018-07-05T00:58:08.522Z,52.68
2018-07-05T01:00:48.405Z,52.70
2018-07-05T01:03:28.303Z,52.89
2018-07-05T01:06:08.163Z,52.73
2018-07-05T01:08:48.728Z,52.83
2018-07-05T01:11:28.610Z,52.40
2018-07-05T01:14:08.321Z,52.29
2018-07-05T01:16:48.009Z,52.20
2018-07-05T01:19:27.895Z,52.87
2018-07-05T01:22:07.556Z,52.71
2018-07-05T01:24:48.365Z,53.02
2018-07-05T01:27:28.631Z,53.17
2018-07-05T01:30:08.414Z,53.20
2018-07-05T01:32:48.274Z,54.03
2018-07-05T01:35:28.119Z,53.86
2018-07-05T01:38:08.262Z,54.38
2018-07-05T01:40:48.080Z,53.56
2018-07-05T01:43:27.996Z,53.56
2018-07-05T01:46:07.752Z,53.56
2018-07-05T01:48:47.549Z,54.58
2018-07-05T01:51:27.547Z,53.83
2018-07-05T01:54:07.450Z,54.37
2018-07-05T01:56:47.438Z,53.54
2018-07-05T01:59:27.823Z,54.41
2018-07-05T02:02:07.579Z,53.95
2018-07-05T02:04:47.660Z,53.83
2018-07-05T02:07:27.454Z,54.65
2018-07-05T02:10:07.358Z,54.16
2018-07-05T02:12:47.115Z,54.68
2018-07-05T02:15:27.263Z,54.47
2018-07-05T02:18:07.155Z,54.51
2018-07-05T02:20:46.979Z,54.34
2018-07-05T02:23:27.330Z,54.79
2018-07-05T02:26:07.157Z,55.15
2018-07-05T02:28:47.108Z,55.21
2018-07-05T02:31:26.768Z,55.28
2018-07-05T02:34:10.974Z,55.05
2018-07-05T02:36:51.240Z,54.34
2018-07-05T02:39:36.201Z,54.55
2018-07-05T02:42:15.910Z,54.67
2018-07-05T02:44:56.097Z,55.24
2018-07-05T02:47:36.142Z,54.58
2018-07-05T02:50:15.826Z,54.62
2018-07-05T02:52:55.715Z,54.92
2018-07-05T02:55:35.426Z,55.11
2018-07-05T02:58:15.197Z,55.31
2018-07-05T03:00:55.388Z,54.42
2018-07-05T03:03:35.077Z,54.21
2018-07-05T03:06:14.912Z,54.56
2018-07-05T03:08:55.048Z,54.55
2018-07-05T03:11:35.124Z,55.51
2018-07-05T03:14:15.091Z,55.77
2018-07-05T03:16:55.075Z,54.75
2018-07-05T03:19:35.402Z,54.79
2018-07-05T03:22:15.206Z,55.32
2018-07-05T03:24:55.000Z,54.33
2018-07-05T03:27:34.969Z,54.62
2018-07-05T03:30:14.810Z,54.38
2018-07-05T03:32:54.516Z,55.01
2018-07-05T03:35:34.790Z,54.40
2018-07-05T03:38:15.432Z,55.40
2018-07-05T03:40:55.376Z,55.13
2018-07-05T03:43:35.660Z,54.29
2018-07-05T03:46:15.521Z,55.00
2018-07-05T03:48:55.822Z,55.07
2018-07-05T03:51:35.969Z,55.06
2018-07-05T03:54:15.722Z,54.32
2018-07-05T03:56:55.655Z,54.12
2018-07-05T03:59:35.473Z,54.12
2018-07-05T04:02:15.371Z,54.20
2018-07-05T04:04:56.109Z,54.79
2018-07-05T04:07:36.048Z,54.69
2018-07-05T04:10:15.967Z,55.18
2018-07-05T04:12:55.954Z,54.42
2018-07-05T04:15:36.246Z,54.07
2018-07-05T04:18:16.566Z,54.81
2018-07-05T04:20:56.512Z,54.92
2018-07-05T04:23:36.362Z,54.33
2018-07-05T04:26:17.463Z,54.58
2018-07-05T04:28:57.892Z,55.43
2018-07-05T04:31:38.721Z,55.12
2018-07-05T04:34:19.548Z,54.15
2018-07-05T04:36:59.883Z,54.19
2018-07-05T04:42:25.017Z,53.55
2018-07-05T04:45:04.652Z,53.77
2018-07-05T04:47:44.622Z,51.55
2018-07-05T04:50:24.633Z,51.61
2018-07-05T04:53:04.789Z,51.78
2018-07-05T04:55:44.553Z,51.36
2018-07-05T04:58:24.488Z,52.27
2018-07-05T05:01:04.530Z,51.96
2018-07-05T05:03:44.524Z,52.04
2018-07-05T05:06:24.284Z,52.90
2018-07-05T05:09:04.574Z,52.69
2018-07-05T05:11:44.806Z,53.91
2018-07-05T05:14:24.974Z,53.82
2018-07-05T05:17:04.749Z,54.08
2018-07-05T05:19:45.115Z,53.77
2018-07-05T05:22:25.039Z,54.57
2018-07-05T05:25:05.333Z,54.47
2018-07-05T05:27:45.223Z,54.98
2018-07-05T05:30:25.025Z,54.85
2018-07-05T05:33:05.211Z,55.06
2018-07-05T05:35:44.941Z,55.30
2018-07-05T05:38:26.669Z,55.34
2018-07-05T05:41:06.394Z,55.33
2018-07-05T05:43:48.143Z,55.33
2018-07-05T05:49:27.530Z,55.99
2018-07-05T05:52:08.182Z,55.52
2018-07-05T05:54:59.360Z,54.79
2018-07-05T05:57:39.720Z,55.60
2018-07-05T06:00:22.259Z,54.75
2018-07-05T06:03:01.962Z,54.73
2018-07-05T06:05:43.012Z,55.42
2018-07-05T06:08:23.066Z,54.74
2018-07-05T06:11:02.771Z,54.76
2018-07-05T06:13:44.228Z,54.58
2018-07-05T06:16:24.267Z,54.34
2018-07-05T06:19:04.300Z,54.59
2018-07-05T06:21:44.214Z,54.34
2018-07-05T06:24:24.231Z,53.47
2018-07-05T06:27:04.581Z,54.36
2018-07-05T06:29:44.901Z,53.96
2018-07-05T06:32:24.459Z,53.04
2018-07-05T06:35:04.640Z,52.55
2018-07-05T06:37:44.362Z,52.90
2018-07-05T06:40:24.134Z,52.12
2018-07-05T06:43:03.710Z,51.30
2018-07-05T06:45:48.712Z,51.84
2018-07-05T06:51:30.356Z,49.85
2018-07-05T06:54:13.919Z,49.27
2018-07-05T06:56:53.693Z,48.14
2018-07-05T06:59:33.507Z,47.76
2018-07-05T07:02:14.013Z,46.15
2018-07-05T07:04:53.773Z,45.52
2018-07-05T07:07:33.484Z,46.72
2018-07-05T07:10:13.316Z,45.59
2018-07-05T07:12:53.071Z,44.33
2018-07-05T07:15:36.071Z,43.38
2018-07-05T07:18:15.981Z,44.87
2018-07-05T07:20:56.239Z,44.34
2018-07-05T07:23:36.129Z,44.96
2018-07-05T07:26:16.240Z,43.72
2018-07-05T07:28:56.455Z,43.92
2018-07-05T07:31:37.971Z,44.10
2018-07-05T07:34:18.116Z,45.01
2018-07-05T07:36:57.930Z,45.40
2018-07-05T07:39:37.685Z,46.13
2018-07-05T07:42:05.054Z,45.88
2018-07-05T07:44:32.445Z,44.64
2018-07-05T07:46:59.809Z,46.16
2018-07-05T07:49:27.197Z,45.49
2018-07-05T07:51:54.725Z,46.42
2018-07-05T07:54:22.223Z,46.24
2018-07-05T07:56:49.813Z,47.87
2018-07-05T07:59:17.414Z,48.01
2018-07-05T08:01:44.858Z,48.49
2018-07-05T08:04:12.775Z,47.50
2018-07-05T08:06:40.252Z,46.31
2018-07-05T08:09:07.663Z,47.29
2018-07-05T08:11:35.173Z,47.34
2018-07-05T08:14:02.746Z,48.18
2018-07-05T08:16:30.217Z,46.88
2018-07-05T08:18:58.578Z,47.47
2018-07-05T08:21:26.581Z,47.35
2018-07-05T08:23:54.212Z,48.77
2018-07-05T08:26:21.861Z,48.17
2018-07-05T08:28:49.490Z,47.88
2018-07-05T08:31:17.018Z,47.69
2018-07-05T08:33:46.449Z,46.35
2018-07-05T08:36:14.370Z,46.39
2018-07-05T08:38:42.183Z,47.02
2018-07-05T08:41:12.140Z,47.77
2018-07-05T08:43:44.638Z,47.28
2018-07-05T08:46:26.270Z,46.21
2018-07-05T08:48:55.324Z,46.61
2018-07-05T08:51:26.200Z,47.04
2018-07-05T08:56:37.287Z,46.55
2018-07-05T08:59:05.717Z,47.22
2018-07-05T09:01:34.612Z,46.80
2018-07-05T09:04:02.296Z,47.41
2018-07-05T09:06:30.915Z,45.43
2018-07-05T09:08:59.205Z,45.94
2018-07-05T09:11:28.053Z,45.76
2018-07-05T09:13:56.711Z,46.50
2018-07-05T09:16:24.450Z,45.31
2018-07-05T09:18:52.068Z,46.01
2018-07-05T09:21:22.958Z,46.90
2018-07-05T09:23:50.699Z,45.77
2018-07-05T09:26:25.815Z,45.11
2018-07-05T09:28:53.368Z,44.76
2018-07-05T09:31:21.041Z,43.57
2018-07-05T09:33:48.967Z,42.68
2018-07-05T09:36:16.381Z,41.75
2018-07-05T09:38:43.736Z,40.19
2018-07-05T09:41:11.154Z,38.68
2018-07-05T09:43:38.539Z,38.77
2018-07-05T09:46:06.139Z,38.67
2018-07-05T09:48:33.896Z,37.23
2018-07-05T09:51:01.229Z,35.06
2018-07-05T09:53:28.627Z,33.67
2018-07-05T09:55:56.103Z,32.97
2018-07-05T09:58:23.555Z,32.62
2018-07-05T10:00:52.215Z,32.40
2018-07-05T10:03:21.212Z,31.69
2018-07-05T10:05:48.984Z,31.98
2018-07-05T10:08:18.279Z,32.13
2018-07-05T10:10:45.675Z,31.91
2018-07-05T10:13:13.272Z,30.94
2018-07-05T10:15:40.856Z,31.30
2018-07-05T10:18:08.271Z,31.81
2018-07-05T10:20:35.761Z,30.99
2018-07-05T10:23:03.127Z,30.21
2018-07-05T10:25:30.546Z,28.44
2018-07-05T10:27:57.927Z,29.47
2018-07-05T10:30:37.354Z,28.81
2018-07-05T10:33:16.970Z,28.01
2018-07-05T10:35:44.441Z,28.99
2018-07-05T10:38:11.957Z,29.78
2018-07-05T10:40:51.561Z,31.65
2018-07-05T10:43:31.360Z,33.39
2018-07-05T10:46:11.021Z,33.73
2018-07-05T10:48:50.725Z,34.02
2018-07-05T10:51:30.354Z,36.23
2018-07-05T10:54:10.060Z,36.61
2018-07-05T10:56:49.690Z,38.00
2018-07-05T10:59:29.984Z,38.12
2018-07-05T11:02:09.690Z,38.40
2018-07-05T11:04:49.537Z,37.64
2018-07-05T11:07:29.054Z,37.22
2018-07-05T11:10:11.024Z,37.36
2018-07-05T11:12:50.737Z,38.81
2018-07-05T11:15:30.605Z,38.38
2018-07-05T11:18:10.222Z,38.00
2018-07-05T11:20:49.852Z,38.58
2018-07-05T11:23:29.676Z,39.63
2018-07-05T11:26:09.280Z,38.38
2018-07-05T11:28:48.864Z,38.96
2018-07-05T11:31:28.782Z,38.04
2018-07-05T11:34:08.410Z,38.90
2018-07-05T11:36:48.279Z,37.70
2018-07-05T11:39:28.035Z,36.73
2018-07-05T11:42:08.069Z,36.61
2018-07-05T11:44:47.786Z,35.78
2018-07-05T11:47:27.438Z,35.78
2018-07-05T11:50:07.141Z,36.00
2018-07-05T11:52:46.714Z,35.39
2018-07-05T11:55:26.398Z,35.32
2018-07-05T11:58:06.375Z,35.13
2018-07-05T12:00:45.921Z,35.27
2018-07-05T12:03:25.634Z,35.19
2018-07-05T12:06:05.467Z,37.03
2018-07-05T12:08:45.486Z,36.52
2018-07-05T12:11:25.258Z,36.66
2018-07-05T12:14:04.991Z,35.36
2018-07-05T12:16:44.568Z,37.39
2018-07-05T12:19:24.174Z,36.30
2018-07-05T12:22:03.846Z,34.92
2018-07-05T12:24:43.636Z,34.32
2018-07-05T12:27:23.336Z,33.21
2018-07-05T12:30:03.344Z,33.50
2018-07-05T12:32:43.125Z,31.47
2018-07-05T12:35:23.063Z,31.35
2018-07-05T12:38:02.793Z,31.23
2018-07-05T12:40:42.561Z,29.76
2018-07-05T12:43:22.217Z,28.87
2018-07-05T12:46:02.330Z,28.92
2018-07-05T12:48:42.546Z,29.86
2018-07-05T12:51:22.849Z,28.90
2018-07-05T12:54:02.407Z,27.72
2018-07-05T12:56:42.130Z,30.04
2018-07-05T12:59:21.684Z,30.69
2018-07-05T13:02:03.360Z,29.17
2018-07-05T13:04:43.172Z,29.62
2018-07-05T13:07:22.894Z,28.68
2018-07-05T13:10:02.672Z,27.86
2018-07-05T13:12:42.624Z,28.82
2018-07-05T13:15:23.341Z,28.43
2018-07-05T13:18:02.907Z,27.24
2018-07-05T13:20:43.742Z,27.31
2018-07-05T13:23:23.933Z,26.80
2018-07-05T13:26:03.679Z,27.57
2018-07-05T13:28:43.253Z,27.46
2018-07-05T13:31:24.525Z,28.02
2018-07-05T13:34:04.274Z,28.10
2018-07-05T13:36:44.503Z,27.30
2018-07-05T13:39:24.144Z,27.99
2018-07-05T13:42:03.925Z,27.89
2018-07-05T13:44:43.611Z,29.97
2018-07-05T13:47:23.131Z,28.54
2018-07-05T13:50:03.264Z,27.39
2018-07-05T13:52:43.272Z,27.47
2018-07-05T13:55:23.096Z,28.40
2018-07-05T13:58:02.854Z,28.58
2018-07-05T14:00:42.500Z,28.25
2018-07-05T14:03:22.270Z,28.14
2018-07-05T14:06:02.049Z,28.91
2018-07-05T14:08:41.790Z,29.51
2018-07-05T14:11:21.552Z,28.81
2018-07-05T14:14:01.254Z,29.43
2018-07-05T14:16:41.051Z,30.26
2018-07-05T14:19:20.696Z,28.29
2018-07-05T14:22:00.580Z,28.74
2018-07-05T14:24:40.195Z,27.91
2018-07-05T14:27:19.906Z,28.79
2018-07-05T14:29:59.559Z,28.70
2018-07-05T14:32:39.301Z,28.26
2018-07-05T14:35:19.087Z,28.61
2018-07-05T14:37:58.806Z,28.85
2018-07-05T14:40:38.418Z,29.40
2018-07-05T14:43:18.215Z,28.70
2018-07-05T14:45:57.884Z,28.15
2018-07-05T14:48:37.506Z,27.76
2018-07-05T14:51:17.301Z,28.40
2018-07-05T14:53:56.863Z,28.75
2018-07-05T14:56:36.575Z,28.51
2018-07-05T14:59:16.457Z,28.08
2018-07-05T15:01:56.042Z,28.54
2018-07-05T15:04:35.835Z,29.45
2018-07-05T15:07:22.750Z,29.61
2018-07-05T15:10:07.812Z,29.05
2018-07-05T15:15:34.872Z,30.82
2018-07-05T15:18:25.596Z,29.64
2018-07-05T15:21:05.628Z,29.70
2018-07-05T15:23:53.658Z,30.09
2018-07-05T15:26:35.165Z,31.02
2018-07-05T15:29:15.119Z,30.42
2018-07-05T15:31:54.717Z,29.71
2018-07-05T15:34:43.975Z,30.37
2018-07-05T15:37:39.451Z,29.67
2018-07-05T15:40:19.326Z,30.73
2018-07-05T15:42:59.179Z,30.96
2018-07-05T15:45:38.844Z,30.66
2018-07-05T15:48:18.510Z,31.96
2018-07-05T15:54:16.256Z,30.32
2018-07-05T16:27:40.158Z,29.23
2018-07-05T16:37:21.531Z,28.39
2018-07-05T16:40:01.285Z,28.57
2018-07-05T16:44:15.780Z,29.14
2018-07-05T16:47:04.111Z,28.79
2018-07-05T16:49:43.754Z,29.56
2018-07-05T16:52:23.519Z,28.58
2018-07-05T16:55:03.602Z,28.90
2018-07-05T16:57:43.401Z,28.65
2018-07-05T17:00:23.028Z,28.42
2018-07-05T17:06:04.907Z,28.33
2018-07-05T17:23:30.994Z,28.96
2018-07-05T17:29:04.777Z,30.01
2018-07-05T17:31:44.762Z,29.66
2018-07-05T17:34:24.505Z,29.44
2018-07-05T17:37:04.257Z,29.50
2018-07-05T17:39:43.814Z,29.78
2018-07-05T17:42:23.465Z,29.95
2018-07-05T17:45:03.216Z,29.97
2018-07-05T17:47:42.741Z,30.00
2018-07-05T17:50:22.351Z,29.04
2018-07-05T17:53:02.149Z,29.93
2018-07-05T17:55:41.941Z,29.87
2018-07-05T17:58:21.538Z,29.54
2018-07-05T18:01:01.320Z,30.22
2018-07-05T18:03:40.976Z,29.80
2018-07-05T18:06:20.577Z,30.46
2018-07-05T18:09:00.250Z,30.57
2018-07-05T18:11:39.720Z,30.73
2018-07-05T18:14:19.421Z,30.57
2018-07-05T18:16:59.059Z,30.94
2018-07-05T18:19:38.530Z,30.15
2018-07-05T18:22:18.209Z,30.92
2018-07-05T18:24:58.032Z,31.31
2018-07-05T18:27:37.652Z,32.11
2018-07-05T18:30:17.473Z,31.54
2018-07-05T18:32:57.191Z,31.83
2018-07-05T18:35:36.992Z,31.15
2018-07-05T18:38:16.542Z,30.73
2018-07-05T18:40:56.117Z,30.77
2018-07-05T18:43:35.819Z,30.68
2018-07-05T18:46:15.447Z,30.45
2018-07-05T18:48:55.084Z,31.25
2018-07-05T18:51:34.889Z,30.79
2018-07-05T18:54:14.628Z,31.07
2018-07-05T18:56:54.229Z,30.95
2018-07-05T18:59:33.964Z,31.06
2018-07-05T19:02:13.573Z,31.51
2018-07-05T19:04:53.301Z,31.49
2018-07-05T19:07:32.958Z,31.88
2018-07-05T19:10:12.601Z,32.61
2018-07-05T19:12:52.872Z,32.85
2018-07-05T19:15:32.876Z,33.17
2018-07-05T19:18:12.678Z,32.79
2018-07-05T19:20:54.594Z,33.74
2018-07-05T19:23:34.367Z,34.36
2018-07-05T19:26:14.128Z,33.98
2018-07-05T19:28:53.870Z,34.16
2018-07-05T19:31:33.484Z,34.90
2018-07-05T19:34:13.261Z,34.61
2018-07-05T19:36:53.077Z,35.17
2018-07-05T19:39:32.672Z,34.88
2018-07-05T19:42:12.351Z,36.19
2018-07-05T19:44:51.902Z,36.20
2018-07-05T19:47:31.553Z,36.09
2018-07-05T19:50:11.482Z,36.04
2018-07-05T19:52:56.348Z,36.39
2018-07-05T19:55:35.940Z,36.10
2018-07-05T19:58:16.549Z,37.10
2018-07-05T20:00:56.305Z,37.19
2018-07-05T20:03:36.013Z,36.43
2018-07-05T20:06:16.005Z,37.50
2018-07-05T20:08:55.796Z,37.26
2018-07-05T20:11:35.544Z,37.23
2018-07-05T20:14:15.104Z,37.47
2018-07-05T20:16:54.799Z,37.45
2018-07-05T20:19:34.587Z,38.43
2018-07-05T20:22:19.404Z,38.25
2018-07-05T20:24:59.234Z,37.61
2018-07-05T20:27:39.126Z,38.38
2018-07-05T20:30:18.949Z,38.25
2018-07-05T20:32:58.586Z,37.28
2018-07-05T20:35:38.164Z,38.19
2018-07-05T20:38:17.763Z,37.26
2018-07-05T20:40:57.306Z,38.17
2018-07-05T20:43:36.934Z,37.26
2018-07-05T20:46:16.739Z,37.48
2018-07-05T20:48:56.330Z,38.13
2018-07-05T20:51:35.918Z,38.14
2018-07-05T20:54:15.651Z,37.49
2018-07-05T20:56:55.284Z,37.47
2018-07-05T20:59:34.941Z,38.20
2018-07-05T21:02:14.691Z,38.62
2018-07-05T21:04:54.331Z,38.82
2018-07-05T21:07:33.837Z,39.32
2018-07-05T21:10:13.450Z,38.04
2018-07-05T21:12:53.246Z,38.50
2018-07-05T21:15:33.072Z,38.39
2018-07-05T21:18:12.759Z,39.03
2018-07-05T21:20:52.437Z,38.24
2018-07-05T21:23:32.374Z,38.80
2018-07-05T21:26:12.141Z,39.24
2018-07-05T21:28:51.724Z,39.56
2018-07-05T21:31:31.279Z,40.14
2018-07-05T21:34:10.937Z,39.18
2018-07-05T21:36:50.578Z,39.13
2018-07-05T21:39:30.227Z,39.89
2018-07-05T21:42:09.943Z,41.26
2018-07-05T21:44:49.453Z,41.05
2018-07-05T21:47:29.122Z,41.02
2018-07-05T21:50:08.725Z,41.13
2018-07-05T21:52:48.320Z,41.36
2018-07-05T21:55:27.928Z,41.06
2018-07-05T21:58:07.504Z,41.49
2018-07-05T22:00:46.943Z,41.85
2018-07-05T22:03:26.530Z,41.46
2018-07-05T22:06:06.016Z,41.85
2018-07-05T22:08:45.795Z,42.14
2018-07-05T22:11:25.502Z,42.57
2018-07-05T22:14:05.162Z,42.68
2018-07-05T22:16:49.989Z,43.20
2018-07-05T22:19:34.952Z,43.84
2018-07-05T22:22:19.965Z,44.37
2018-07-05T22:25:04.862Z,44.24
2018-07-05T22:27:49.725Z,44.52
2018-07-05T22:30:34.784Z,44.86
2018-07-05T22:33:14.521Z,44.15
2018-07-05T22:35:54.233Z,44.28
2018-07-05T22:38:33.939Z,45.60
2018-07-05T22:41:13.524Z,45.58
2018-07-05T22:43:53.147Z,45.52
2018-07-05T22:46:32.686Z,44.65
2018-07-05T22:49:12.337Z,45.56
2018-07-05T22:51:51.890Z,45.13
2018-07-05T22:54:31.635Z,45.16
2018-07-05T22:57:11.355Z,46.43
2018-07-05T22:59:50.997Z,45.90
2018-07-05T23:02:30.633Z,46.03
2018-07-05T23:05:10.234Z,45.99
2018-07-05T23:07:49.835Z,46.90
2018-07-05T23:10:29.403Z,46.94
2018-07-05T23:13:08.961Z,47.33
2018-07-05T23:15:48.554Z,47.65
2018-07-05T23:18:28.114Z,46.91
2018-07-05T23:21:07.620Z,47.48
2018-07-05T23:23:47.287Z,47.69
2018-07-05T23:26:26.827Z,47.13
2018-07-05T23:29:06.574Z,48.20
2018-07-05T23:31:46.213Z,48.40
2018-07-05T23:34:25.906Z,47.73
2018-07-05T23:37:05.398Z,47.67
2018-07-05T23:39:45.128Z,48.45
2018-07-05T23:42:24.694Z,48.95
2018-07-05T23:45:04.205Z,48.47
2018-07-05T23:47:43.620Z,48.53
2018-07-05T23:50:23.268Z,48.81
2018-07-05T23:53:02.834Z,48.88
2018-07-05T23:55:42.429Z,48.63
2018-07-05T23:58:22.110Z,48.63
